Time;durP1;ratioP1;P1;durP2;ratioP2;P2;SDS_P1;SDS_P2;PMS_P1;PMS_P2;Temp;Humidity;BMP_temperature;BMP_pressure;BME280_temperature;BME280_humidity;BME280_pressure;Samples;Min_cycle;Max_cycle;Signal;HPM_P1;HPM_P2
2022/10/11 00:02:04;;;;;;;8.27;2.77;;;;;;;13.18;100.00;96347.72;4999797;28;24443;-73
2022/10/11 00:04:31;;;;;;;10.50;3.65;;;;;;;13.33;100.00;96351.97;5006627;28;24456;-72
2022/10/11 00:06:57;;;;;;;6.72;3.28;;;;;;;13.28;100.00;96354.03;4999805;28;24447;-72
2022/10/11 00:09:24;;;;;;;7.47;2.88;;;;;;;13.06;100.00;96359.72;5006354;28;24902;-73
2022/10/11 00:11:54;;;;;;;8.82;3.20;;;;;;;13.18;100.00;96360.72;5000114;28;24452;-73
2022/10/11 00:14:21;;;;;;;12.30;3.22;;;;;;;13.04;100.00;96366.78;5006455;28;24849;-73
2022/10/11 00:16:47;;;;;;;5.97;2.78;;;;;;;13.04;100.00;96359.81;4999799;28;24436;-73
2022/10/11 00:19:14;;;;;;;7.85;2.78;;;;;;;13.01;100.00;96354.78;5005682;28;24440;-73
2022/10/11 00:21:41;;;;;;;10.57;3.13;;;;;;;13.14;100.00;96364.44;4996044;28;24552;-73
2022/10/11 00:24:08;;;;;;;6.65;2.78;;;;;;;13.05;100.00;96369.31;5004712;28;24453;-72
2022/10/11 00:26:34;;;;;;;9.68;3.38;;;;;;;13.19;100.00;96371.00;4993072;28;24429;-73
2022/10/11 00:29:02;;;;;;;12.55;3.15;;;;;;;13.15;100.00;96369.53;4999380;28;24436;-73
2022/10/11 00:31:29;;;;;;;10.32;2.75;;;;;;;13.11;100.00;96372.44;5001587;28;24461;-73
2022/10/11 00:33:55;;;;;;;7.47;2.72;;;;;;;13.08;100.00;96373.47;4996608;28;24435;-73
2022/10/11 00:36:22;;;;;;;9.00;3.22;;;;;;;13.13;100.00;96379.22;5001964;28;24439;-72
2022/10/11 00:38:49;;;;;;;8.07;2.83;;;;;;;13.24;100.00;96371.59;5001382;28;24889;-73
2022/10/11 00:41:16;;;;;;;7.60;2.92;;;;;;;13.18;100.00;96369.34;5002488;28;24440;-73
2022/10/11 00:43:44;;;;;;;7.45;3.08;;;;;;;13.12;100.00;96367.13;4992916;28;24468;-73
2022/10/11 00:46:28;;;;;;;13.23;3.50;;;;;;;13.14;100.00;96367.88;4995066;28;24440;-72
2022/10/11 00:49:00;;;;;;;9.65;3.38;;;;;;;13.16;100.00;96375.56;4996438;28;24435;-73
2022/10/11 00:51:41;;;;;;;10.85;3.30;;;;;;;13.33;100.00;96375.38;4993047;28;24433;-73
2022/10/11 00:54:13;;;;;;;11.52;2.88;;;;;;;13.20;100.00;96369.25;5003440;28;24428;-73
2022/10/11 00:56:41;;;;;;;8.60;3.30;;;;;;;13.39;100.00;96371.56;4999045;28;24783;-73
2022/10/11 00:59:12;;;;;;;9.50;3.28;;;;;;;13.22;100.00;96380.41;5002596;28;24805;-73
2022/10/11 01:01:40;;;;;;;6.85;2.92;;;;;;;13.13;100.00;96381.00;4993964;28;24442;-71
2022/10/11 01:04:07;;;;;;;8.90;3.17;;;;;;;13.15;100.00;96379.09;5001988;28;24448;-73
2022/10/11 01:06:34;;;;;;;9.05;2.95;;;;;;;12.99;100.00;96376.66;5001643;28;24437;-73
2022/10/11 01:09:01;;;;;;;8.15;2.78;;;;;;;12.95;100.00;96377.78;5001851;28;24992;-72
2022/10/11 01:11:30;;;;;;;5.82;2.75;;;;;;;13.01;100.00;96377.38;5000854;28;24440;-73
2022/10/11 01:14:10;;;;;;;7.70;2.80;;;;;;;12.99;100.00;96374.88;5001621;28;24435;-73
2022/10/11 01:16:46;;;;;;;8.47;2.83;;;;;;;13.07;100.00;96374.41;4993985;28;24440;-72
2022/10/11 01:19:28;;;;;;;7.97;3.05;;;;;;;13.08;100.00;96373.47;5001397;28;25004;-71
2022/10/11 01:22:08;;;;;;;11.95;3.22;;;;;;;13.08;100.00;96376.06;4990743;28;24444;-73
2022/10/11 01:24:56;;;;;;;30.75;17.60;;;;;;;13.07;100.00;96371.78;5002727;28;24459;-73
2022/10/11 01:27:38;;;;;;;24.40;14.38;;;;;;;13.07;100.00;96377.00;4998424;28;24440;-71
2022/10/11 01:30:23;;;;;;;15.50;9.52;;;;;;;13.11;100.00;96375.03;4998113;28;24437;-73
2022/10/11 01:32:59;;;;;;;11.83;4.87;;;;;;;13.05;100.00;96378.84;4991892;28;24444;-73
2022/10/11 01:35:30;;;;;;;9.73;3.25;;;;;;;13.01;100.00;96373.00;4992384;28;24456;-73
2022/10/11 01:38:02;;;;;;;9.18;3.38;;;;;;;13.06;100.00;96373.56;5002226;28;24620;-73
2022/10/11 01:40:34;;;;;;;8.95;3.13;;;;;;;13.08;100.00;96370.84;4997987;28;24990;-73
2022/10/11 01:43:02;;;;;;;6.30;3.25;;;;;;;13.09;100.00;96364.75;4998118;28;24429;-73
2022/10/11 01:45:31;;;;;;;7.68;3.05;;;;;;;13.14;100.00;96367.03;4992658;28;24452;-73
2022/10/11 01:48:05;;;;;;;7.50;3.35;;;;;;;13.12;100.00;96372.31;5001883;28;24425;-73
2022/10/11 01:50:39;;;;;;;8.90;3.33;;;;;;;13.14;100.00;96374.84;5000061;28;24441;-73
2022/10/11 01:53:31;;;;;;;6.05;3.05;;;;;;;13.17;100.00;96369.47;5000919;28;24429;-72
2022/10/11 01:56:06;;;;;;;8.57;3.40;;;;;;;13.15;100.00;96369.53;4996260;28;24439;-73
2022/10/11 01:58:45;;;;;;;7.00;3.40;;;;;;;13.15;100.00;96373.91;4999466;28;24439;-73
2022/10/11 02:01:23;;;;;;;8.40;3.08;;;;;;;13.15;100.00;96372.13;4999007;28;24443;-73
2022/10/11 02:03:57;;;;;;;6.30;3.03;;;;;;;13.18;100.00;96369.34;4990516;28;24436;-73
2022/10/11 02:06:32;;;;;;;9.60;3.30;;;;;;;13.18;100.00;96364.16;4999093;28;24984;-73
2022/10/11 02:09:06;;;;;;;8.50;3.20;;;;;;;13.13;100.00;96366.22;5000636;28;24443;-72
2022/10/11 02:11:34;;;;;;;8.02;2.90;;;;;;;13.13;100.00;96371.41;4998171;28;25036;-73
2022/10/11 02:14:06;;;;;;;6.45;2.83;;;;;;;13.07;100.00;96367.44;5000784;28;24428;-72
2022/10/11 02:16:39;;;;;;;7.07;3.15;;;;;;;13.06;100.00;96370.97;5001571;28;24444;-72
2022/10/11 02:19:08;;;;;;;9.23;3.13;;;;;;;12.99;100.00;96363.66;5000996;28;24455;-73
2022/10/11 02:21:38;;;;;;;7.05;3.03;;;;;;;12.88;100.00;96372.13;5000698;28;24440;-73
2022/10/11 02:24:10;;;;;;;5.95;2.83;;;;;;;12.89;100.00;96363.38;5001132;28;24428;-72
2022/10/11 02:26:41;;;;;;;6.65;3.22;;;;;;;12.85;100.00;96372.31;5000523;28;25008;-73
2022/10/11 02:29:12;;;;;;;9.45;3.08;;;;;;;12.86;100.00;96368.75;5000738;28;25000;-73
2022/10/11 02:31:41;;;;;;;11.35;3.20;;;;;;;12.78;100.00;96358.84;4995040;28;24451;-73
2022/10/11 02:34:13;;;;;;;39.95;3.35;;;;;;;12.76;100.00;96362.50;4989625;28;24816;-72
2022/10/11 02:36:49;;;;;;;12.82;1.95;;;;;;;12.75;100.00;96361.63;5000976;28;24439;-72
2022/10/11 02:39:21;;;;;;;6.33;2.13;;;;;;;12.76;100.00;96367.69;4999245;28;24977;-73
2022/10/11 02:41:52;;;;;;;12.25;2.10;;;;;;;12.75;100.00;96371.19;5001185;28;24518;-73
2022/10/11 02:44:26;;;;;;;84.07;3.53;;;;;;;12.77;100.00;96364.16;4999328;28;24429;-73
2022/10/11 02:46:55;;;;;;;19.17;2.00;;;;;;;12.83;100.00;96367.22;5001139;28;24952;-73
2022/10/11 02:49:21;;;;;;;53.83;2.92;;;;;;;12.91;100.00;96363.31;4999015;28;24455;-73
2022/10/11 02:51:48;;;;;;;13.05;2.00;;;;;;;12.93;100.00;96366.63;5000798;28;24444;-72
2022/10/11 02:54:14;;;;;;;12.93;2.47;;;;;;;12.87;100.00;96362.66;4999512;28;24439;-72
2022/10/11 02:56:41;;;;;;;6.53;2.05;;;;;;;12.74;100.00;96369.53;4989433;28;25207;-73
2022/10/11 02:59:07;;;;;;;21.70;2.50;;;;;;;12.59;100.00;96373.91;5000010;28;24425;-73
2022/10/11 03:01:34;;;;;;;23.08;2.47;;;;;;;12.51;100.00;96373.56;4999675;28;24432;-73
2022/10/11 03:04:02;;;;;;;10.82;2.25;;;;;;;12.54;100.00;96369.00;5000185;28;24435;-73
2022/10/11 03:06:29;;;;;;;7.05;3.20;;;;;;;12.43;100.00;96378.38;4999387;28;24461;-73
2022/10/11 03:08:55;;;;;;;11.90;3.67;;;;;;;12.24;100.00;96384.69;5000602;28;24432;-73
2022/10/11 03:11:22;;;;;;;8.60;4.45;;;;;;;12.20;100.00;96388.38;4998371;28;24448;-73
2022/10/11 03:13:48;;;;;;;7.22;4.32;;;;;;;12.18;100.00;96389.41;5000435;28;24447;-73
2022/10/11 03:16:15;;;;;;;7.55;4.40;;;;;;;12.21;100.00;96397.84;4998552;28;24448;-73
2022/10/11 03:18:42;;;;;;;11.85;4.90;;;;;;;12.25;100.00;96399.31;4984931;28;24428;-73
2022/10/11 03:21:10;;;;;;;8.40;4.30;;;;;;;12.32;100.00;96398.03;4999169;28;25045;-72
2022/10/11 03:23:36;;;;;;;7.20;4.37;;;;;;;12.39;100.00;96389.88;5003512;28;24436;-72
2022/10/11 03:26:03;;;;;;;9.57;5.68;;;;;;;12.40;100.00;96381.16;5003598;28;24457;-73
2022/10/11 03:28:29;;;;;;;13.75;6.65;;;;;;;12.62;100.00;96391.09;4994733;28;24440;-73
2022/10/11 03:30:56;;;;;;;7.50;5.60;;;;;;;12.58;100.00;96398.22;5003935;28;24446;-72
2022/10/11 03:33:22;;;;;;;10.48;6.45;;;;;;;12.74;100.00;96400.72;5001474;28;24469;-73
2022/10/11 03:35:49;;;;;;;16.20;7.00;;;;;;;12.83;100.00;96400.19;5004877;28;24425;-72
2022/10/11 03:38:19;;;;;;;12.13;8.10;;;;;;;12.86;100.00;96401.72;5000333;28;25000;-73
2022/10/11 03:40:46;;;;;;;15.77;9.43;;;;;;;12.74;100.00;96401.56;5004879;28;24440;-73
2022/10/11 03:43:12;;;;;;;12.85;8.75;;;;;;;12.58;100.00;96403.44;5008259;28;24429;-73
2022/10/11 03:45:41;;;;;;;20.58;11.77;;;;;;;12.62;100.00;96406.69;4989118;28;24449;-73
2022/10/11 03:48:08;;;;;;;13.70;10.88;;;;;;;12.51;100.00;96410.75;4992257;28;24468;-72
2022/10/11 03:50:35;;;;;;;17.90;12.32;;;;;;;12.58;100.00;96412.06;5004737;28;24472;-73
2022/10/11 03:53:02;;;;;;;21.67;12.52;;;;;;;12.54;100.00;96412.34;5006310;28;24853;-73
2022/10/11 03:55:29;;;;;;;23.52;11.82;;;;;;;12.48;100.00;96415.28;5000942;28;24433;-73
2022/10/11 03:57:56;;;;;;;25.15;13.52;;;;;;;12.40;100.00;96405.38;4999737;28;24433;-73
2022/10/11 04:00:23;;;;;;;21.45;12.18;;;;;;;12.66;100.00;96402.97;5015534;22;25004;-78
2022/10/11 04:02:49;;;;;;;19.85;12.70;;;;;;;12.75;100.00;96407.59;5003085;28;24440;-78
2022/10/11 04:05:16;;;;;;;20.30;12.55;;;;;;;12.75;100.00;96407.59;5005930;28;24536;-78
2022/10/11 04:07:43;;;;;;;20.75;12.38;;;;;;;12.66;100.00;96410.75;4998977;28;24883;-78
2022/10/11 04:10:09;;;;;;;20.48;12.38;;;;;;;12.44;100.00;96416.41;5008299;28;24436;-78
2022/10/11 04:12:38;;;;;;;18.20;12.55;;;;;;;12.40;100.00;96420.13;5004483;28;24442;-78
2022/10/11 04:15:05;;;;;;;20.05;12.45;;;;;;;12.34;100.00;96422.13;5003596;28;24432;-77
2022/10/11 04:17:33;;;;;;;18.70;12.77;;;;;;;12.48;100.00;96417.91;5003930;28;24432;-77
2022/10/11 04:19:59;;;;;;;19.80;12.23;;;;;;;12.57;100.00;96427.75;4997780;28;24436;-77
2022/10/11 04:22:26;;;;;;;25.10;12.48;;;;;;;12.48;100.00;96429.13;5003832;28;24441;-77
2022/10/11 04:24:53;;;;;;;18.33;11.67;;;;;;;12.42;100.00;96432.09;5006705;28;24992;-78
2022/10/11 04:27:19;;;;;;;16.80;11.87;;;;;;;12.40;100.00;96427.91;5002542;28;24437;-78
2022/10/11 04:29:47;;;;;;;23.35;12.85;;;;;;;12.38;100.00;96430.59;5001159;28;24800;-78
2022/10/11 04:32:13;;;;;;;20.70;13.35;;;;;;;12.34;100.00;96426.50;4995870;28;24449;-78
2022/10/11 04:34:40;;;;;;;20.95;12.50;;;;;;;12.45;100.00;96425.88;5007551;28;24435;-78
2022/10/11 04:37:06;;;;;;;21.48;12.40;;;;;;;12.54;100.00;96423.56;5007165;28;24433;-78
2022/10/11 04:39:33;;;;;;;19.40;11.95;;;;;;;12.51;100.00;96421.16;5001223;28;24977;-77
2022/10/11 04:41:59;;;;;;;20.17;13.18;;;;;;;12.56;100.00;96426.88;5002655;28;24499;-76
2022/10/11 04:44:26;;;;;;;21.30;12.98;;;;;;;12.52;100.00;96435.78;5001586;28;24459;-77
2022/10/11 04:46:54;;;;;;;19.33;12.05;;;;;;;12.59;100.00;96431.06;5002638;28;24451;-76
2022/10/11 04:49:20;;;;;;;19.60;12.13;;;;;;;12.53;100.00;96432.28;5000584;28;24433;-77
2022/10/11 04:51:47;;;;;;;18.92;12.57;;;;;;;12.44;100.00;96438.03;4991160;28;24996;-77
2022/10/11 04:54:13;;;;;;;17.52;11.52;;;;;;;12.37;100.00;96438.47;4998814;28;24439;-78
2022/10/11 04:56:40;;;;;;;16.77;12.27;;;;;;;12.26;100.00;96444.31;5002322;28;24797;-78
2022/10/11 04:59:07;;;;;;;23.83;12.57;;;;;;;12.27;100.00;96449.44;5001412;28;24993;-77
2022/10/11 05:01:34;;;;;;;18.58;11.68;;;;;;;12.37;100.00;96447.09;5000807;28;24464;-77
2022/10/11 05:04:01;;;;;;;19.55;12.23;;;;;;;12.59;100.00;96450.09;5002127;28;24847;-78
2022/10/11 05:06:28;;;;;;;17.77;11.82;;;;;;;12.44;100.00;96451.00;5000539;28;24452;-78
2022/10/11 05:08:54;;;;;;;17.98;10.55;;;;;;;12.44;100.00;96452.78;5002127;28;24433;-78
2022/10/11 05:11:21;;;;;;;22.48;12.93;;;;;;;12.36;100.00;96453.22;4998941;28;24502;-77
2022/10/11 05:13:48;;;;;;;22.38;12.75;;;;;;;12.30;100.00;96444.03;5003236;28;24831;-78
2022/10/11 05:16:15;;;;;;;18.88;12.88;;;;;;;12.20;100.00;96448.13;4991092;28;24748;-78
2022/10/11 05:18:41;;;;;;;16.13;12.23;;;;;;;12.24;100.00;96448.78;4990553;28;24436;-77
2022/10/11 05:21:15;;;;;;;19.33;11.48;;;;;;;12.39;100.00;96447.88;4998492;28;24978;-77
2022/10/11 05:23:42;;;;;;;18.90;11.50;;;;;;;12.43;100.00;96457.16;4987673;28;24467;-78
2022/10/11 05:26:09;;;;;;;19.85;12.27;;;;;;;12.48;100.00;96454.25;5006343;28;24457;-78
2022/10/11 05:28:36;;;;;;;19.55;11.93;;;;;;;12.49;100.00;96453.34;4994356;28;25132;-79
2022/10/11 05:31:03;;;;;;;15.23;11.15;;;;;;;12.33;100.00;96459.44;4997976;28;24996;-79
2022/10/11 05:33:29;;;;;;;17.08;10.75;;;;;;;12.25;100.00;96463.41;4998043;28;24440;-79
2022/10/11 05:35:56;;;;;;;15.80;11.95;;;;;;;12.21;100.00;96467.13;4994937;28;24451;-79
2022/10/11 05:38:24;;;;;;;16.48;11.18;;;;;;;12.24;100.00;96465.19;4997526;28;24441;-78
2022/10/11 05:40:50;;;;;;;14.95;10.55;;;;;;;12.20;100.00;96468.03;4994636;28;24429;-78
2022/10/11 05:43:17;;;;;;;17.80;11.45;;;;;;;12.14;100.00;96474.44;4998003;28;24436;-78
2022/10/11 05:45:45;;;;;;;20.10;11.15;;;;;;;12.22;100.00;96477.41;5003096;28;24459;-78
2022/10/11 05:48:12;;;;;;;20.67;10.90;;;;;;;12.33;100.00;96480.22;4997747;28;24433;-78
2022/10/11 05:50:39;;;;;;;20.63;10.93;;;;;;;12.37;100.00;96480.03;5005634;28;24662;-78
2022/10/11 05:53:06;;;;;;;19.70;10.73;;;;;;;12.29;100.00;96483.91;4992119;28;25004;-78
2022/10/11 05:55:37;;;;;;;16.52;10.93;;;;;;;12.30;100.00;96487.34;5005928;28;24433;-77
2022/10/11 05:58:03;;;;;;;20.35;12.80;;;;;;;12.24;100.00;96485.13;4997978;28;24441;-76
2022/10/11 06:00:30;;;;;;;23.80;12.70;;;;;;;12.20;100.00;96492.25;5004682;28;24432;-76
2022/10/11 06:02:57;;;;;;;20.25;11.80;;;;;;;12.25;100.00;96486.78;4991304;28;24433;-76
2022/10/11 06:05:23;;;;;;;18.73;11.60;;;;;;;12.24;100.00;96487.72;5003719;28;24440;-77
2022/10/11 06:07:50;;;;;;;22.38;12.93;;;;;;;12.21;100.00;96495.69;4990730;28;24436;-76
2022/10/11 06:10:17;;;;;;;22.75;12.73;;;;;;;12.56;100.00;96493.63;5004073;28;24970;-76
2022/10/11 06:12:45;;;;;;;21.27;12.75;;;;;;;12.60;100.00;96501.13;4997833;28;24472;-76
2022/10/11 06:15:11;;;;;;;19.23;13.70;;;;;;;12.69;100.00;96507.56;5002978;28;24444;-76
2022/10/11 06:17:38;;;;;;;21.70;14.00;;;;;;;12.67;100.00;96512.00;4997583;28;24436;-76
2022/10/11 06:20:05;;;;;;;21.80;14.27;;;;;;;12.70;100.00;96498.00;4995724;28;24961;-76
2022/10/11 06:22:32;;;;;;;21.00;14.23;;;;;;;12.77;100.00;96505.34;4991035;28;24436;-76
2022/10/11 06:24:59;;;;;;;25.10;13.93;;;;;;;12.65;100.00;96506.09;5000846;28;24996;-76
2022/10/11 06:27:25;;;;;;;26.27;15.38;;;;;;;12.77;100.00;96509.72;4991577;28;24475;-76
2022/10/11 06:29:53;;;;;;;22.92;14.80;;;;;;;12.62;100.00;96510.63;5000059;28;24440;-76
2022/10/11 06:32:20;;;;;;;25.02;14.60;;;;;;;12.46;100.00;96513.25;5000136;28;24440;-76
2022/10/11 06:34:46;;;;;;;28.83;15.75;;;;;;;12.27;100.00;96518.69;4998828;28;24443;-76
2022/10/11 06:37:13;;;;;;;24.13;15.40;;;;;;;12.33;100.00;96521.78;5000876;28;25087;-76
2022/10/11 06:39:39;;;;;;;21.73;15.65;;;;;;;12.43;100.00;96527.28;4989627;28;24437;-77
2022/10/11 06:42:06;;;;;;;22.35;15.98;;;;;;;12.38;100.00;96529.28;4999675;28;24443;-77
2022/10/11 06:44:33;;;;;;;26.67;16.17;;;;;;;12.29;100.00;96525.47;4992514;28;24803;-77
2022/10/11 06:47:01;;;;;;;32.35;17.13;;;;;;;12.39;100.00;96524.97;4994309;28;24459;-77
2022/10/11 06:49:27;;;;;;;22.40;15.63;;;;;;;12.31;100.00;96523.66;4996776;28;24449;-76
2022/10/11 06:51:54;;;;;;;26.33;16.75;;;;;;;12.34;100.00;96528.63;4995959;28;24441;-77
2022/10/11 06:54:20;;;;;;;24.88;16.90;;;;;;;12.30;100.00;96537.53;4995227;28;24428;-76
2022/10/11 06:56:47;;;;;;;20.45;15.77;;;;;;;12.37;100.00;96537.19;5005010;28;25060;-76
2022/10/11 06:59:13;;;;;;;31.95;17.80;;;;;;;12.27;100.00;96537.72;5004366;28;24806;-76
2022/10/11 07:01:40;;;;;;;33.97;18.77;;;;;;;12.20;100.00;96541.59;4998246;28;24448;-76
2022/10/11 07:04:08;;;;;;;26.00;15.98;;;;;;;12.20;100.00;96546.78;5005202;28;24456;-76
2022/10/11 07:06:37;;;;;;;21.40;15.75;;;;;;;12.29;100.00;96551.44;4997861;28;24461;-77
2022/10/11 07:09:05;;;;;;;28.67;18.35;;;;;;;12.42;100.00;96551.59;5005274;28;24436;-76
2022/10/11 07:11:31;;;;;;;49.10;19.67;;;;;;;12.33;100.00;96552.94;5001060;28;24468;-76
2022/10/11 07:14:00;;;;;;;30.60;20.48;;;;;;;12.28;100.00;96561.94;4997135;28;24436;-77
2022/10/11 07:16:28;;;;;;;37.17;20.67;;;;;;;12.14;100.00;96557.53;5000651;28;24440;-76
2022/10/11 07:18:56;;;;;;;32.15;20.48;;;;;;;12.13;100.00;96562.81;4996950;28;24432;-76
2022/10/11 07:21:24;;;;;;;36.58;20.13;;;;;;;12.15;100.00;96564.38;5001203;28;24429;-76
2022/10/11 07:23:50;;;;;;;36.65;21.55;;;;;;;12.37;100.00;96568.38;5006016;28;24429;-76
2022/10/11 07:26:18;;;;;;;35.15;20.88;;;;;;;12.69;100.00;96563.91;4994029;28;24464;-76
2022/10/11 07:28:45;;;;;;;35.50;21.35;;;;;;;12.74;100.00;96569.66;5006089;28;24528;-76
2022/10/11 07:31:13;;;;;;;31.80;19.77;;;;;;;12.51;100.00;96574.44;4989955;28;24449;-76
2022/10/11 07:33:40;;;;;;;32.55;21.63;;;;;;;12.61;100.00;96572.16;5006329;28;24990;-76
2022/10/11 07:36:07;;;;;;;34.28;20.23;;;;;;;12.60;100.00;96578.25;4993441;28;24432;-76
2022/10/11 07:38:35;;;;;;;32.70;20.20;;;;;;;12.75;100.00;96576.53;5006310;28;24439;-76
2022/10/11 07:41:05;;;;;;;26.75;18.40;;;;;;;12.63;100.00;96577.25;5000591;28;24432;-77
2022/10/11 07:43:32;;;;;;;25.13;17.85;;;;;;;12.66;100.00;96582.28;4994953;28;24433;-77
2022/10/11 07:46:02;;;;;;;33.50;19.10;;;;;;;12.74;100.00;96577.47;5000880;28;24429;-77
2022/10/11 07:48:29;;;;;;;31.80;18.37;;;;;;;12.47;100.00;96575.53;5005938;28;24437;-77
2022/10/11 07:51:02;;;;;;;23.42;17.60;;;;;;;12.70;100.00;96576.81;4992074;28;24444;-77
2022/10/11 07:53:28;;;;;;;27.85;19.25;;;;;;;12.67;100.00;96579.56;4991778;28;24436;-77
2022/10/11 07:55:59;;;;;;;27.02;16.70;;;;;;;12.46;100.00;96581.69;4999555;28;24452;-77
2022/10/11 07:58:26;;;;;;;28.10;18.02;;;;;;;12.55;100.00;96578.53;4999630;28;24424;-77
2022/10/11 08:00:53;;;;;;;32.65;18.15;;;;;;;12.48;100.00;96581.56;5027626;28;24435;-77
2022/10/11 08:03:19;;;;;;;24.38;17.05;;;;;;;12.47;100.00;96575.53;5045585;28;24424;-78
2022/10/11 08:05:46;;;;;;;32.45;18.00;;;;;;;12.34;100.00;96579.75;5045181;28;24431;-77
2022/10/11 08:08:12;;;;;;;37.33;19.20;;;;;;;12.24;100.00;96574.25;5046890;28;24454;-77
2022/10/11 08:10:40;;;;;;;27.73;18.42;;;;;;;12.27;100.00;96573.22;5044652;28;24443;-78
2022/10/11 08:13:08;;;;;;;31.92;18.60;;;;;;;12.26;100.00;96577.59;5047857;28;24431;-77
2022/10/11 08:15:34;;;;;;;36.28;18.30;;;;;;;12.25;100.00;96575.09;5043214;28;24439;-77
2022/10/11 08:18:01;;;;;;;26.77;18.00;;;;;;;12.27;100.00;96575.84;5046873;28;24777;-76
2022/10/11 08:20:29;;;;;;;34.92;18.85;;;;;;;12.35;100.00;96576.25;5043498;28;24442;-77
2022/10/11 08:22:56;;;;;;;28.65;19.08;;;;;;;12.44;100.00;96577.47;5046974;28;24997;-77
2022/10/11 08:25:23;;;;;;;38.85;18.42;;;;;;;12.47;100.00;96570.34;5042928;28;24462;-77
2022/10/11 08:27:49;;;;;;;25.48;17.90;;;;;;;12.59;100.00;96572.22;5046355;28;25046;-77
2022/10/11 08:30:17;;;;;;;33.63;19.20;;;;;;;12.49;100.00;96585.84;5041059;28;24439;-77
2022/10/11 08:32:43;;;;;;;28.05;19.83;;;;;;;12.41;100.00;96585.44;5030391;28;24439;-78
2022/10/11 08:35:10;;;;;;;31.27;19.50;;;;;;;12.44;100.00;96585.28;5042160;28;24431;-77
2022/10/11 08:37:36;;;;;;;32.88;20.20;;;;;;;12.59;100.00;96590.41;5045024;28;24431;-77
2022/10/11 08:40:04;;;;;;;32.00;20.60;;;;;;;12.56;100.00;96584.56;5043399;28;24435;-77
2022/10/11 08:42:37;;;;;;;33.53;18.87;;;;;;;12.46;100.00;96586.88;5026882;28;24440;-77
2022/10/11 08:45:08;;;;;;;30.13;20.45;;;;;;;12.26;100.00;96584.56;5042695;28;24436;-77
2022/10/11 08:47:40;;;;;;;32.38;19.45;;;;;;;12.36;100.00;96585.72;5044223;28;24451;-77
2022/10/11 08:50:15;;;;;;;25.83;19.83;;;;;;;12.55;100.00;96593.28;5041161;28;24797;-76
2022/10/11 08:52:48;;;;;;;27.17;20.27;;;;;;;12.86;100.00;96597.53;5028934;28;24431;-77
2022/10/11 08:55:19;;;;;;;29.58;19.25;;;;;;;12.68;100.00;96598.59;5039863;28;25002;-77
2022/10/11 08:57:51;;;;;;;30.58;20.38;;;;;;;12.37;100.00;96594.34;5029864;28;24434;-77
2022/10/11 09:00:19;;;;;;;27.10;18.38;;;;;;;12.41;100.00;96594.06;5039387;28;24450;-77
2022/10/11 09:02:58;;;;;;;24.17;18.23;;;;;;;12.65;100.00;96599.63;5044740;28;24516;-77
2022/10/11 09:05:31;;;;;;;27.42;19.80;;;;;;;12.97;100.00;96605.53;5038518;28;24435;-77
2022/10/11 09:08:07;;;;;;;32.95;20.02;;;;;;;12.59;100.00;96599.97;5044134;28;24451;-76
2022/10/11 09:10:57;;;;;;;29.40;19.38;;;;;;;12.31;100.00;96606.75;5046392;28;24438;-76
2022/10/11 09:13:51;;;;;;;35.05;20.05;;;;;;;12.26;100.00;96595.78;5044241;28;24454;-77
2022/10/11 09:16:28;;;;;;;32.45;18.77;;;;;;;12.21;100.00;96595.22;5046700;28;24493;-77
2022/10/11 09:19:23;;;;;;;25.70;18.67;;;;;;;12.17;100.00;96605.88;5042773;28;24432;-77
2022/10/11 09:22:00;;;;;;;27.95;18.90;;;;;;;12.20;100.00;96603.94;5029706;28;24436;-77
2022/10/11 09:24:39;;;;;;;22.98;17.40;;;;;;;12.28;100.00;96606.09;5034530;28;25122;-77
2022/10/11 09:27:11;;;;;;;30.88;18.05;;;;;;;12.30;100.00;96607.66;5031471;28;24546;-77
2022/10/11 09:29:50;;;;;;;28.85;18.90;;;;;;;12.27;100.00;96601.81;5041543;28;24446;-77
2022/10/11 09:32:19;;;;;;;33.88;17.38;;;;;;;12.34;100.00;96603.97;5045478;28;24442;-78
2022/10/11 09:34:52;;;;;;;19.90;15.48;;;;;;;12.42;100.00;96598.38;5043216;28;24991;-77
2022/10/11 09:37:26;;;;;;;31.98;18.42;;;;;;;12.47;100.00;96600.69;5045139;28;24654;-77
2022/10/11 09:39:57;;;;;;;24.35;17.48;;;;;;;12.50;100.00;96600.53;5041958;28;24443;-77
2022/10/11 09:42:23;;;;;;;28.33;18.10;;;;;;;12.60;100.00;96604.25;5045868;28;24442;-78
2022/10/11 09:44:52;;;;;;;33.58;17.00;;;;;;;12.59;100.00;96602.59;5042043;28;24431;-77
2022/10/11 09:47:22;;;;;;;31.33;17.50;;;;;;;12.56;100.00;96600.16;5044596;28;24455;-77
2022/10/11 09:49:57;;;;;;;24.55;17.25;;;;;;;12.56;100.00;96600.16;5041774;28;20850;-77
2022/10/11 09:52:24;;;;;;;26.77;16.43;;;;;;;12.80;100.00;96606.53;5037189;28;24442;-77
2022/10/11 09:54:54;;;;;;;23.10;16.73;;;;;;;13.01;100.00;96608.78;5041935;28;24806;-77
2022/10/11 09:57:23;;;;;;;25.20;16.27;;;;;;;12.77;100.00;96614.50;5044896;28;24838;-77
2022/10/11 10:00:04;;;;;;;23.05;16.88;;;;;;;12.63;100.00;96608.44;5041823;28;24802;-78
2022/10/11 10:02:38;;;;;;;24.83;18.02;;;;;;;12.96;100.00;96611.66;5045948;28;24435;-77
2022/10/11 10:05:17;;;;;;;28.45;17.42;;;;;;;13.11;100.00;96611.69;5039633;28;24424;-77
2022/10/11 10:07:59;;;;;;;27.50;17.02;;;;;;;13.39;100.00;96619.56;5033705;28;24455;-77
2022/10/11 10:10:30;;;;;;;31.92;18.40;;;;;;;12.84;100.00;96620.19;5036772;28;25035;-77
2022/10/11 10:13:00;;;;;;;29.73;17.52;;;;;;;12.77;100.00;96616.28;5055181;22;24529;-72
2022/10/11 10:15:29;;;;;;;22.35;15.55;;;;;;;12.65;100.00;96617.84;5037989;28;24432;-71
2022/10/11 10:17:57;;;;;;;21.27;16.75;;;;;;;12.53;100.00;96618.50;5041544;28;24486;-72
2022/10/11 10:20:30;;;;;;;26.30;16.75;;;;;;;12.45;100.00;96618.13;5030578;28;24434;-72
2022/10/11 10:22:57;;;;;;;31.00;17.65;;;;;;;12.45;100.00;96623.31;5044877;28;24439;-71
2022/10/11 10:25:31;;;;;;;28.73;18.75;;;;;;;12.50;100.00;96616.13;5038192;28;24420;-72
2022/10/11 10:27:59;;;;;;;30.33;17.83;;;;;;;12.59;100.00;96618.16;5043628;28;24451;-71
2022/10/11 10:30:27;;;;;;;33.00;18.55;;;;;;;12.52;100.00;96622.88;5031499;28;24436;-72
2022/10/11 10:32:56;;;;;;;23.75;16.65;;;;;;;12.69;100.00;96621.94;5048363;28;25014;-72
2022/10/11 10:35:31;;;;;;;34.00;18.35;;;;;;;12.48;100.00;96615.34;5041459;28;24976;-71
2022/10/11 10:38:16;;;;;;;28.00;18.33;;;;;;;12.78;100.00;96610.97;5046803;28;24976;-71
2022/10/11 10:40:47;;;;;;;29.30;17.27;;;;;;;12.90;100.00;96617.22;5060417;28;24521;-72
2022/10/11 10:43:16;;;;;;;26.50;17.33;;;;;;;12.61;100.00;96618.94;5056713;28;24438;-71
2022/10/11 10:46:00;;;;;;;25.23;17.40;;;;;;;12.45;100.00;96613.75;5038243;28;24519;-72
2022/10/11 10:48:34;;;;;;;27.03;16.73;;;;;;;12.53;100.00;96615.91;5043053;28;24993;-72
2022/10/11 10:51:08;;;;;;;25.77;16.27;;;;;;;12.67;100.00;96612.53;5051550;28;24439;-73
2022/10/11 10:53:40;;;;;;;23.55;16.27;;;;;;;12.93;100.00;96608.41;5046150;28;24443;-73
2022/10/11 10:56:12;;;;;;;30.60;16.60;;;;;;;12.95;100.00;96611.78;5043947;28;24436;-73
2022/10/11 10:58:57;;;;;;;32.13;15.75;;;;;;;12.95;100.00;96616.97;5038591;28;24432;-72
2022/10/11 11:01:27;;;;;;;27.15;14.90;;;;;;;12.87;100.00;96617.44;5042402;28;24980;-70
2022/10/11 11:04:04;;;;;;;25.98;14.98;;;;;;;12.90;100.00;96606.81;5047736;28;25015;-73
2022/10/11 11:06:38;;;;;;;28.27;15.97;;;;;;;12.89;100.00;96617.31;5042415;28;24441;-74
2022/10/11 11:09:21;;;;;;;22.40;15.60;;;;;;;13.05;100.00;96602.47;5047601;28;24458;-73
2022/10/11 11:11:57;;;;;;;24.08;14.35;;;;;;;13.04;100.00;96601.66;5035004;28;24438;-73
2022/10/11 11:14:36;;;;;;;22.63;14.40;;;;;;;12.96;100.00;96611.66;5046293;28;24427;-72
2022/10/11 11:17:12;;;;;;;29.65;15.27;;;;;;;12.89;100.00;96606.94;5044515;28;24457;-73
2022/10/11 11:19:52;;;;;;;24.27;15.07;;;;;;;13.34;100.00;96607.75;5044347;28;24450;-72
2022/10/11 11:22:30;;;;;;;21.98;13.80;;;;;;;13.12;100.00;96603.78;5046245;28;24463;-72
2022/10/11 11:25:05;;;;;;;23.15;13.57;;;;;;;13.07;100.00;96603.25;5041496;28;24427;-73
2022/10/11 11:27:43;;;;;;;30.55;15.73;;;;;;;13.01;100.00;96601.81;5047816;28;24461;-73